Portada
METAR-TAF:

METAR-TAF

Aeropuertos :

Aeropuerto Internacional Chhatrapati Shivaji

Bombay, India

latitud: 19-07N, longitud: 072-51E, altitud: 8 m

Observación

El informe se hizo hace 18 minutos, a las 02:30 UTC
Viento 7 kt del oeste
Temperatura 31°C
Humedad 71%
Presión 1008 hPa
Visibilidad: 5000 m
Escasas nubes a una altura de 2000 ft
Nubes dispersas a una altura de 2500 ft
calima

METAR: VABB 280230Z 28007KT 5000 HZ FEW020 SCT025 31/25 Q1008 NOSIG

Hora: 08:18 (02:48 UTC)

Pronóstico

El informe se hizo hace 18 horas y 48 minutos, a las 08:00 UTC
Pronóstico válido del 27 a las 09 UTC al 27 a las 18 UTC
Viento 9 kt del oeste
Visibilidad: 6000 m
Escasas nubes a una altura de 2000 ft
Nubes dispersas a una altura de 2500 ft
Evolucionando progresivamente
del 27 a las 15 UTC al 27 a las 17 UTC
Visibilidad: 5000 m
calima

TAF: VABB 270800Z 2709/2718 27009KT 6000 FEW020 SCT025 BECMG 2715/2717 5000 HZ

Observaciones y pronósticos meteorológicos de más de 4000 aeropuertos (mensajes METAR y TAF).

Los puntos amarillos y rojos representan las estaciones disponibles.

Ponga el ratón en el punto deseado para ver el nombre de la estación.

Haga clic para ver las observaciones y los pronósticos meteorológicos.

Para cambiar el mapa : haga clic en los botones verdes con una cruz de color negro para hacer un zoom, en el botón verde con un guión para alejar o en las flechas verdes para mapas adyacentes.


METAR-TAF: